sensor_id;sensor_type;location;lat;lon;timestamp;pressure;altitude;pressure_sealevel;temperature;humidity
19457;BME280;9867;48.094;11.478;2023-07-02T00:00:07;94679.94;;;18.05;100.00
19457;BME280;9867;48.094;11.478;2023-07-02T00:02:35;94681.69;;;17.89;100.00
19457;BME280;9867;48.094;11.478;2023-07-02T00:05:04;94677.06;;;18.01;100.00
19457;BME280;9867;48.094;11.478;2023-07-02T00:07:34;94677.31;;;17.95;100.00
19457;BME280;9867;48.094;11.478;2023-07-02T00:10:06;94679.38;;;17.93;100.00
19457;BME280;9867;48.094;11.478;2023-07-02T00:12:34;94671.38;;;18.10;100.00
19457;BME280;9867;48.094;11.478;2023-07-02T00:15:02;94664.34;;;17.95;100.00
19457;BME280;9867;48.094;11.478;2023-07-02T00:17:30;94673.75;;;18.11;100.00
19457;BME280;9867;48.094;11.478;2023-07-02T00:19:58;94673.97;;;18.04;100.00
19457;BME280;9867;48.094;11.478;2023-07-02T00:22:29;94673.75;;;18.11;100.00
19457;BME280;9867;48.094;11.478;2023-07-02T00:24:57;94674.72;;;18.00;100.00
19457;BME280;9867;48.094;11.478;2023-07-02T00:27:27;94679.41;;;18.03;100.00
19457;BME280;9867;48.094;11.478;2023-07-02T00:29:54;94673.94;;;17.99;100.00
19457;BME280;9867;48.094;11.478;2023-07-02T00:32:22;94673.94;;;17.99;100.00
19457;BME280;9867;48.094;11.478;2023-07-02T00:34:50;94670.06;;;18.02;100.00
19457;BME280;9867;48.094;11.478;2023-07-02T00:37:18;94687.41;;;17.96;100.00
19457;BME280;9867;48.094;11.478;2023-07-02T00:39:46;94679.13;;;17.99;100.00
19457;BME280;9867;48.094;11.478;2023-07-02T00:42:14;94682.00;;;17.56;100.00
19457;BME280;9867;48.094;11.478;2023-07-02T00:44:44;94655.78;;;17.52;100.00
19457;BME280;9867;48.094;11.478;2023-07-02T00:47:12;94661.13;;;17.35;100.00
19457;BME280;9867;48.094;11.478;2023-07-02T00:49:40;94652.56;;;17.35;100.00
19457;BME280;9867;48.094;11.478;2023-07-02T00:52:08;94660.19;;;17.47;100.00
19457;BME280;9867;48.094;11.478;2023-07-02T00:54:36;94678.56;;;17.45;100.00
19457;BME280;9867;48.094;11.478;2023-07-02T00:57:04;94665.06;;;17.43;100.00
19457;BME280;9867;48.094;11.478;2023-07-02T00:59:33;94679.13;;;17.52;100.00
19457;BME280;9867;48.094;11.478;2023-07-02T01:02:03;94661.53;;;17.59;100.00
19457;BME280;9867;48.094;11.478;2023-07-02T01:04:33;94669.97;;;17.82;100.00
19457;BME280;9867;48.094;11.478;2023-07-02T01:07:01;94668.78;;;17.57;100.00
19457;BME280;9867;48.094;11.478;2023-07-02T01:09:35;94662.78;;;17.47;100.00
19457;BME280;9867;48.094;11.478;2023-07-02T01:12:04;94664.19;;;17.64;100.00
19457;BME280;9867;48.094;11.478;2023-07-02T01:14:37;94675.44;;;17.85;100.00
19457;BME280;9867;48.094;11.478;2023-07-02T01:17:08;94668.88;;;17.72;100.00
19457;BME280;9867;48.094;11.478;2023-07-02T01:19:44;94664.41;;;17.63;100.00
19457;BME280;9867;48.094;11.478;2023-07-02T01:22:18;94678.53;;;17.82;100.00
19457;BME280;9867;48.094;11.478;2023-07-02T01:24:46;94680.84;;;17.79;100.00
19457;BME280;9867;48.094;11.478;2023-07-02T01:27:15;94670.69;;;17.72;100.00
19457;BME280;9867;48.094;11.478;2023-07-02T01:29:45;94676.94;;;17.71;100.00
19457;BME280;9867;48.094;11.478;2023-07-02T01:32:14;94672.94;;;17.58;100.00
19457;BME280;9867;48.094;11.478;2023-07-02T01:34:43;94678.22;;;17.68;100.00
19457;BME280;9867;48.094;11.478;2023-07-02T01:37:15;94678.94;;;17.64;100.00
19457;BME280;9867;48.094;11.478;2023-07-02T01:39:45;94676.56;;;17.57;100.00
19457;BME280;9867;48.094;11.478;2023-07-02T01:42:14;94674.34;;;17.71;100.00
19457;BME280;9867;48.094;11.478;2023-07-02T01:44:47;94674.56;;;17.64;100.00
19457;BME280;9867;48.094;11.478;2023-07-02T01:47:16;94678.78;;;17.81;100.00
19457;BME280;9867;48.094;11.478;2023-07-02T01:49:46;94673.19;;;17.57;100.00
19457;BME280;9867;48.094;11.478;2023-07-02T01:52:14;94673.19;;;17.57;100.00
19457;BME280;9867;48.094;11.478;2023-07-02T01:54:43;94680.16;;;17.51;100.00
19457;BME280;9867;48.094;11.478;2023-07-02T01:57:11;94674.31;;;17.66;100.00
19457;BME280;9867;48.094;11.478;2023-07-02T01:59:39;94678.66;;;17.60;100.00
19457;BME280;9867;48.094;11.478;2023-07-02T02:02:07;94672.69;;;17.60;100.00
19457;BME280;9867;48.094;11.478;2023-07-02T02:07:31;94672.84;;;17.43;100.00
19457;BME280;9867;48.094;11.478;2023-07-02T02:10:01;94668.38;;;17.33;100.00
19457;BME280;9867;48.094;11.478;2023-07-02T02:12:29;94676.44;;;17.37;100.00
19457;BME280;9867;48.094;11.478;2023-07-02T02:14:57;94670.25;;;17.43;100.00
19457;BME280;9867;48.094;11.478;2023-07-02T02:17:25;94669.53;;;17.48;100.00
19457;BME280;9867;48.094;11.478;2023-07-02T02:19:52;94673.44;;;17.55;100.00
19457;BME280;9867;48.094;11.478;2023-07-02T02:22:20;94675.47;;;17.48;100.00
19457;BME280;9867;48.094;11.478;2023-07-02T02:24:50;94679.38;;;17.51;100.00
19457;BME280;9867;48.094;11.478;2023-07-02T02:27:17;94675.28;;;17.60;100.00
19457;BME280;9867;48.094;11.478;2023-07-02T02:29:45;94680.72;;;17.58;100.00
19457;BME280;9867;48.094;11.478;2023-07-02T02:32:13;94675.38;;;17.70;100.00
19457;BME280;9867;48.094;11.478;2023-07-02T02:34:44;94670.72;;;17.77;100.00
19457;BME280;9867;48.094;11.478;2023-07-02T02:37:12;94682.38;;;17.69;100.00
19457;BME280;9867;48.094;11.478;2023-07-02T02:39:39;94680.28;;;17.66;100.00
19457;BME280;9867;48.094;11.478;2023-07-02T02:42:09;94680.47;;;17.60;100.00
19457;BME280;9867;48.094;11.478;2023-07-02T02:44:38;94685.38;;;17.56;100.00
19457;BME280;9867;48.094;11.478;2023-07-02T02:47:06;94689.88;;;17.66;100.00
19457;BME280;9867;48.094;11.478;2023-07-02T02:49:37;94688.63;;;17.79;100.00
19457;BME280;9867;48.094;11.478;2023-07-02T02:52:05;94672.91;;;17.53;100.00
19457;BME280;9867;48.094;11.478;2023-07-02T02:54:33;94686.44;;;17.60;100.00
19457;BME280;9867;48.094;11.478;2023-07-02T02:57:01;94689.78;;;17.56;100.00
19457;BME280;9867;48.094;11.478;2023-07-02T02:59:30;94670.28;;;17.48;100.00
19457;BME280;9867;48.094;11.478;2023-07-02T03:01:58;94689.31;;;17.64;100.00
19457;BME280;9867;48.094;11.478;2023-07-02T03:04:26;94689.13;;;17.76;100.00
19457;BME280;9867;48.094;11.478;2023-07-02T03:06:54;94691.19;;;17.73;100.00
19457;BME280;9867;48.094;11.478;2023-07-02T03:09:22;94689.56;;;17.62;100.00
19457;BME280;9867;48.094;11.478;2023-07-02T03:11:50;94698.09;;;17.58;100.00
19457;BME280;9867;48.094;11.478;2023-07-02T03:14:18;94691.03;;;17.48;100.00
19457;BME280;9867;48.094;11.478;2023-07-02T03:16:48;94706.38;;;17.55;100.00
19457;BME280;9867;48.094;11.478;2023-07-02T03:19:16;94698.00;;;17.43;100.00
19457;BME280;9867;48.094;11.478;2023-07-02T03:21:44;94709.28;;;17.26;100.00
19457;BME280;9867;48.094;11.478;2023-07-02T03:24:12;94750.41;;;17.13;100.00
19457;BME280;9867;48.094;11.478;2023-07-02T03:26:40;94800.00;;;16.29;100.00
19457;BME280;9867;48.094;11.478;2023-07-02T03:29:08;94762.88;;;15.46;100.00
19457;BME280;9867;48.094;11.478;2023-07-02T03:31:37;94770.78;;;14.78;100.00
19457;BME280;9867;48.094;11.478;2023-07-02T03:34:07;94753.50;;;14.66;100.00
19457;BME280;9867;48.094;11.478;2023-07-02T03:36:35;94752.28;;;14.17;100.00
19457;BME280;9867;48.094;11.478;2023-07-02T03:39:03;94743.88;;;14.22;100.00
19457;BME280;9867;48.094;11.478;2023-07-02T03:41:35;94747.13;;;14.17;100.00
19457;BME280;9867;48.094;11.478;2023-07-02T03:44:03;94759.28;;;14.17;100.00
19457;BME280;9867;48.094;11.478;2023-07-02T03:46:31;94763.84;;;14.26;100.00
19457;BME280;9867;48.094;11.478;2023-07-02T03:48:59;94759.06;;;14.07;100.00
19457;BME280;9867;48.094;11.478;2023-07-02T03:51:29;94762.16;;;14.20;100.00
19457;BME280;9867;48.094;11.478;2023-07-02T03:53:57;94762.59;;;14.17;100.00
19457;BME280;9867;48.094;11.478;2023-07-02T03:56:25;94762.94;;;14.32;100.00
19457;BME280;9867;48.094;11.478;2023-07-02T03:58:53;94767.31;;;14.20;100.00
19457;BME280;9867;48.094;11.478;2023-07-02T04:01:21;94764.19;;;14.18;100.00
19457;BME280;9867;48.094;11.478;2023-07-02T04:03:50;94758.66;;;14.38;100.00
19457;BME280;9867;48.094;11.478;2023-07-02T04:06:19;94773.91;;;14.40;100.00
19457;BME280;9867;48.094;11.478;2023-07-02T04:08:48;94780.31;;;14.25;100.00
19457;BME280;9867;48.094;11.478;2023-07-02T04:11:16;94771.28;;;14.11;100.00
19457;BME280;9867;48.094;11.478;2023-07-02T04:13:44;94762.25;;;14.25;100.00
19457;BME280;9867;48.094;11.478;2023-07-02T04:16:12;94761.56;;;14.42;100.00
19457;BME280;9867;48.094;11.478;2023-07-02T04:18:40;94768.50;;;14.53;100.00
19457;BME280;9867;48.094;11.478;2023-07-02T04:21:07;94783.41;;;14.62;100.00
19457;BME280;9867;48.094;11.478;2023-07-02T04:23:35;94774.00;;;14.56;100.00
19457;BME280;9867;48.094;11.478;2023-07-02T04:26:05;94764.50;;;14.74;100.00
19457;BME280;9867;48.094;11.478;2023-07-02T04:28:53;94776.38;;;14.75;100.00
19457;BME280;9867;48.094;11.478;2023-07-02T04:31:21;94771.78;;;14.77;100.00
19457;BME280;9867;48.094;11.478;2023-07-02T04:33:49;94779.41;;;14.83;100.00
19457;BME280;9867;48.094;11.478;2023-07-02T04:36:17;94780.50;;;14.87;100.00
19457;BME280;9867;48.094;11.478;2023-07-02T04:38:45;94771.25;;;14.91;100.00
19457;BME280;9867;48.094;11.478;2023-07-02T04:41:14;94773.81;;;15.03;100.00
19457;BME280;9867;48.094;11.478;2023-07-02T04:43:42;94772.00;;;15.04;100.00
19457;BME280;9867;48.094;11.478;2023-07-02T04:46:12;94773.44;;;15.11;100.00
19457;BME280;9867;48.094;11.478;2023-07-02T04:48:39;94778.28;;;15.08;100.00
19457;BME280;9867;48.094;11.478;2023-07-02T04:51:07;94782.66;;;15.07;100.00
19457;BME280;9867;48.094;11.478;2023-07-02T04:53:35;94784.00;;;15.10;100.00
19457;BME280;9867;48.094;11.478;2023-07-02T04:56:04;94788.38;;;15.09;100.00
19457;BME280;9867;48.094;11.478;2023-07-02T04:58:35;94791.19;;;15.08;100.00
19457;BME280;9867;48.094;11.478;2023-07-02T05:01:03;94802.91;;;14.98;100.00
19457;BME280;9867;48.094;11.478;2023-07-02T05:03:31;94790.72;;;15.11;100.00
19457;BME280;9867;48.094;11.478;2023-07-02T05:05:59;94804.19;;;15.13;100.00
19457;BME280;9867;48.094;11.478;2023-07-02T05:08:27;94793.25;;;15.22;100.00
19457;BME280;9867;48.094;11.478;2023-07-02T05:10:55;94789.88;;;15.39;100.00
19457;BME280;9867;48.094;11.478;2023-07-02T05:13:23;94810.59;;;15.55;100.00
19457;BME280;9867;48.094;11.478;2023-07-02T05:15:52;94808.59;;;15.57;100.00
19457;BME280;9867;48.094;11.478;2023-07-02T05:18:20;94808.50;;;15.69;100.00
19457;BME280;9867;48.094;11.478;2023-07-02T05:20:48;94803.72;;;15.78;100.00
19457;BME280;9867;48.094;11.478;2023-07-02T05:23:16;94808.31;;;15.92;100.00
19457;BME280;9867;48.094;11.478;2023-07-02T05:25:44;94814.28;;;15.93;100.00
19457;BME280;9867;48.094;11.478;2023-07-02T05:28:12;94813.16;;;16.06;100.00
19457;BME280;9867;48.094;11.478;2023-07-02T05:30:40;94817.28;;;16.07;100.00
19457;BME280;9867;48.094;11.478;2023-07-02T05:33:10;94826.53;;;16.19;100.00
19457;BME280;9867;48.094;11.478;2023-07-02T05:35:38;94828.03;;;16.15;100.00
19457;BME280;9867;48.094;11.478;2023-07-02T05:38:06;94819.84;;;16.01;100.00
19457;BME280;9867;48.094;11.478;2023-07-02T05:40:34;94816.59;;;16.11;100.00
19457;BME280;9867;48.094;11.478;2023-07-02T05:43:01;94824.25;;;16.23;100.00
19457;BME280;9867;48.094;11.478;2023-07-02T05:45:29;94816.72;;;16.21;100.00
19457;BME280;9867;48.094;11.478;2023-07-02T05:47:58;94823.84;;;16.31;100.00
19457;BME280;9867;48.094;11.478;2023-07-02T05:50:27;94827.81;;;16.38;100.00
19457;BME280;9867;48.094;11.478;2023-07-02T05:52:56;94827.31;;;16.20;100.00
19457;BME280;9867;48.094;11.478;2023-07-02T05:55:24;94827.78;;;16.17;100.00
19457;BME280;9867;48.094;11.478;2023-07-02T05:57:52;94824.84;;;16.30;100.00
19457;BME280;9867;48.094;11.478;2023-07-02T06:00:20;94830.97;;;16.41;100.00
19457;BME280;9867;48.094;11.478;2023-07-02T06:02:48;94826.69;;;16.29;100.00
19457;BME280;9867;48.094;11.478;2023-07-02T06:05:15;94828.00;;;16.32;100.00
19457;BME280;9867;48.094;11.478;2023-07-02T06:07:45;94824.56;;;16.26;100.00
19457;BME280;9867;48.094;11.478;2023-07-02T06:10:13;94827.47;;;16.13;100.00
19457;BME280;9867;48.094;11.478;2023-07-02T06:12:41;94829.38;;;16.18;100.00
19457;BME280;9867;48.094;11.478;2023-07-02T06:15:10;94821.72;;;16.06;100.00
19457;BME280;9867;48.094;11.478;2023-07-02T06:17:38;94827.31;;;16.20;100.00
19457;BME280;9867;48.094;11.478;2023-07-02T06:20:07;94838.00;;;16.07;100.00
19457;BME280;9867;48.094;11.478;2023-07-02T06:22:35;94830.16;;;16.18;100.00
19457;BME280;9867;48.094;11.478;2023-07-02T06:25:05;94838.78;;;16.24;100.00
19457;BME280;9867;48.094;11.478;2023-07-02T06:27:33;94830.38;;;16.17;100.00
19457;BME280;9867;48.094;11.478;2023-07-02T06:30:00;94834.63;;;16.23;100.00
19457;BME280;9867;48.094;11.478;2023-07-02T06:32:28;94841.16;;;16.30;100.00
19457;BME280;9867;48.094;11.478;2023-07-02T06:34:56;94841.13;;;16.25;100.00
19457;BME280;9867;48.094;11.478;2023-07-02T06:37:24;94842.47;;;16.28;100.00
19457;BME280;9867;48.094;11.478;2023-07-02T06:39:52;94844.22;;;16.44;100.00
19457;BME280;9867;48.094;11.478;2023-07-02T06:42:22;94845.72;;;16.40;100.00
19457;BME280;9867;48.094;11.478;2023-07-02T06:44:52;94853.41;;;16.35;100.00
19457;BME280;9867;48.094;11.478;2023-07-02T06:47:20;94847.72;;;16.16;100.00
19457;BME280;9867;48.094;11.478;2023-07-02T06:49:48;94853.16;;;15.98;100.00
19457;BME280;9867;48.094;11.478;2023-07-02T06:52:16;94846.97;;;15.82;100.00
19457;BME280;9867;48.094;11.478;2023-07-02T06:54:44;94833.25;;;15.98;100.00
19457;BME280;9867;48.094;11.478;2023-07-02T06:57:12;94835.06;;;15.81;100.00
19457;BME280;9867;48.094;11.478;2023-07-02T06:59:42;94846.25;;;15.87;100.00
19457;BME280;9867;48.094;11.478;2023-07-02T07:02:10;94852.66;;;15.51;100.00
19457;BME280;9867;48.094;11.478;2023-07-02T07:04:39;94847.31;;;15.41;100.00
19457;BME280;9867;48.094;11.478;2023-07-02T07:07:06;94843.09;;;15.34;100.00
19457;BME280;9867;48.094;11.478;2023-07-02T07:09:34;94833.81;;;15.39;100.00
19457;BME280;9867;48.094;11.478;2023-07-02T07:12:03;94853.78;;;15.26;100.00
19457;BME280;9867;48.094;11.478;2023-07-02T07:14:33;94837.91;;;15.34;100.00
19457;BME280;9867;48.094;11.478;2023-07-02T07:17:03;94846.78;;;15.10;100.00
19457;BME280;9867;48.094;11.478;2023-07-02T07:19:31;94855.00;;;15.07;100.00
19457;BME280;9867;48.094;11.478;2023-07-02T07:21:59;94847.47;;;15.06;100.00
19457;BME280;9867;48.094;11.478;2023-07-02T07:24:27;94851.50;;;14.85;100.00
19457;BME280;9867;48.094;11.478;2023-07-02T07:26:55;94841.75;;;14.75;100.00
19457;BME280;9867;48.094;11.478;2023-07-02T07:29:23;94834.56;;;14.65;100.00
19457;BME280;9867;48.094;11.478;2023-07-02T07:31:51;94836.69;;;14.68;100.00
19457;BME280;9867;48.094;11.478;2023-07-02T07:34:20;94843.19;;;14.71;100.00
19457;BME280;9867;48.094;11.478;2023-07-02T07:36:48;94845.00;;;14.71;100.00
19457;BME280;9867;48.094;11.478;2023-07-02T07:39:16;94846.09;;;14.86;100.00
19457;BME280;9867;48.094;11.478;2023-07-02T07:41:46;94847.09;;;15.14;100.00
19457;BME280;9867;48.094;11.478;2023-07-02T07:44:14;94856.97;;;15.17;100.00
19457;BME280;9867;48.094;11.478;2023-07-02T07:46:42;94859.88;;;15.20;100.00
19457;BME280;9867;48.094;11.478;2023-07-02T07:49:10;94867.63;;;15.20;100.00
19457;BME280;9867;48.094;11.478;2023-07-02T07:51:39;94867.72;;;14.97;100.00
19457;BME280;9867;48.094;11.478;2023-07-02T07:54:07;94866.13;;;15.08;100.00
19457;BME280;9867;48.094;11.478;2023-07-02T07:56:35;94868.41;;;15.21;100.00
19457;BME280;9867;48.094;11.478;2023-07-02T07:59:03;94871.44;;;15.46;100.00
19457;BME280;9867;48.094;11.478;2023-07-02T08:01:31;94868.28;;;15.56;100.00
19457;BME280;9867;48.094;11.478;2023-07-02T08:03:59;94875.47;;;15.54;100.00
19457;BME280;9867;48.094;11.478;2023-07-02T08:06:27;94879.88;;;15.70;100.00
19457;BME280;9867;48.094;11.478;2023-07-02T08:08:56;94882.66;;;15.52;100.00
19457;BME280;9867;48.094;11.478;2023-07-02T08:11:24;94874.72;;;15.87;100.00
19457;BME280;9867;48.094;11.478;2023-07-02T08:13:52;94886.00;;;16.14;100.00
19457;BME280;9867;48.094;11.478;2023-07-02T08:16:20;94891.97;;;15.98;100.00
19457;BME280;9867;48.094;11.478;2023-07-02T08:18:48;94891.50;;;16.01;100.00
19457;BME280;9867;48.094;11.478;2023-07-02T08:21:16;94879.03;;;15.98;100.00
19457;BME280;9867;48.094;11.478;2023-07-02T08:23:44;94893.53;;;15.99;100.00
19457;BME280;9867;48.094;11.478;2023-07-02T08:26:13;94884.84;;;16.05;100.00
19457;BME280;9867;48.094;11.478;2023-07-02T08:28:41;94893.59;;;15.87;100.00
19457;BME280;9867;48.094;11.478;2023-07-02T08:31:09;94898.84;;;15.59;100.00
19457;BME280;9867;48.094;11.478;2023-07-02T08:33:38;94886.97;;;15.46;100.00
19457;BME280;9867;48.094;11.478;2023-07-02T08:36:06;94886.06;;;15.69;100.00
19457;BME280;9867;48.094;11.478;2023-07-02T08:38:34;94899.69;;;15.64;100.00
19457;BME280;9867;48.094;11.478;2023-07-02T08:41:02;94905.50;;;15.72;100.00
19457;BME280;9867;48.094;11.478;2023-07-02T08:43:32;94901.34;;;15.71;100.00
19457;BME280;9867;48.094;11.478;2023-07-02T08:46:00;94902.00;;;15.78;100.00
19457;BME280;9867;48.094;11.478;2023-07-02T08:48:28;94909.66;;;15.56;100.00
19457;BME280;9867;48.094;11.478;2023-07-02T08:50:56;94909.66;;;15.56;100.00
19457;BME280;9867;48.094;11.478;2023-07-02T08:53:24;94905.81;;;15.58;100.00
19457;BME280;9867;48.094;11.478;2023-07-02T08:55:56;94914.47;;;15.52;100.00
19457;BME280;9867;48.094;11.478;2023-07-02T08:58:24;94899.31;;;15.56;100.00
19457;BME280;9867;48.094;11.478;2023-07-02T09:01:07;94915.16;;;15.76;100.00
19457;BME280;9867;48.094;11.478;2023-07-02T09:03:36;94923.94;;;15.47;100.00
19457;BME280;9867;48.094;11.478;2023-07-02T09:06:05;94917.84;;;15.53;100.00
19457;BME280;9867;48.094;11.478;2023-07-02T09:08:33;94917.50;;;15.21;100.00
19457;BME280;9867;48.094;11.478;2023-07-02T09:11:08;94922.56;;;15.27;100.00
19457;BME280;9867;48.094;11.478;2023-07-02T09:13:45;94923.78;;;15.25;100.00
19457;BME280;9867;48.094;11.478;2023-07-02T09:16:27;94922.91;;;15.19;100.00
19457;BME280;9867;48.094;11.478;2023-07-02T09:19:00;94915.16;;;15.19;100.00
19457;BME280;9867;48.094;11.478;2023-07-02T09:21:37;94923.00;;;15.24;100.00
19457;BME280;9867;48.094;11.478;2023-07-02T09:24:13;94930.72;;;15.36;100.00
19457;BME280;9867;48.094;11.478;2023-07-02T09:26:43;94934.38;;;15.80;100.00
19457;BME280;9867;48.094;11.478;2023-07-02T09:29:12;94929.75;;;15.82;100.00
19457;BME280;9867;48.094;11.478;2023-07-02T09:31:46;94919.41;;;15.54;100.00
19457;BME280;9867;48.094;11.478;2023-07-02T09:34:35;94925.28;;;15.94;100.00
19457;BME280;9867;48.094;11.478;2023-07-02T09:37:04;94941.25;;;15.58;100.00
19457;BME280;9867;48.094;11.478;2023-07-02T09:39:33;94945.03;;;15.84;100.00
19457;BME280;9867;48.094;11.478;2023-07-02T09:42:03;94937.22;;;16.12;100.00
19457;BME280;9867;48.094;11.478;2023-07-02T09:44:34;94947.97;;;16.21;100.00
19457;BME280;9867;48.094;11.478;2023-07-02T09:47:05;94950.44;;;16.32;100.00
19457;BME280;9867;48.094;11.478;2023-07-02T09:49:34;94951.22;;;16.33;100.00
19457;BME280;9867;48.094;11.478;2023-07-02T09:52:04;94942.75;;;16.37;100.00
19457;BME280;9867;48.094;11.478;2023-07-02T09:54:32;94943.16;;;16.46;100.00
19457;BME280;9867;48.094;11.478;2023-07-02T09:57:02;94937.03;;;16.52;100.00
19457;BME280;9867;48.094;11.478;2023-07-02T09:59:30;94939.88;;;16.51;100.00
19457;BME280;9867;48.094;11.478;2023-07-02T10:01:58;94946.41;;;16.92;100.00
19457;BME280;9867;48.094;11.478;2023-07-02T10:04:27;94950.66;;;17.25;100.00
19457;BME280;9867;48.094;11.478;2023-07-02T10:06:56;94956.47;;;17.59;100.00
19457;BME280;9867;48.094;11.478;2023-07-02T10:09:35;94963.09;;;17.93;100.00
19457;BME280;9867;48.094;11.478;2023-07-02T10:12:15;94959.72;;;18.30;100.00
19457;BME280;9867;48.094;11.478;2023-07-02T10:14:44;94963.50;;;18.91;100.00
19457;BME280;9867;48.094;11.478;2023-07-02T10:17:23;94962.59;;;19.18;100.00
19457;BME280;9867;48.094;11.478;2023-07-02T10:19:54;94977.78;;;18.84;100.00
19457;BME280;9867;48.094;11.478;2023-07-02T10:22:23;94963.16;;;19.25;100.00
19457;BME280;9867;48.094;11.478;2023-07-02T10:24:52;94965.66;;;18.99;100.00
19457;BME280;9867;48.094;11.478;2023-07-02T10:27:32;94973.34;;;19.41;100.00
19457;BME280;9867;48.094;11.478;2023-07-02T10:30:01;94958.66;;;19.72;100.00
19457;BME280;9867;48.094;11.478;2023-07-02T10:32:30;94958.44;;;20.04;100.00
19457;BME280;9867;48.094;11.478;2023-07-02T10:35:01;94972.19;;;19.90;100.00
19457;BME280;9867;48.094;11.478;2023-07-02T10:37:37;94961.06;;;20.30;100.00
19457;BME280;9867;48.094;11.478;2023-07-02T10:40:07;94957.16;;;20.37;100.00
19457;BME280;9867;48.094;11.478;2023-07-02T10:42:45;94962.88;;;20.29;100.00
19457;BME280;9867;48.094;11.478;2023-07-02T10:45:13;94959.22;;;20.25;100.00
19457;BME280;9867;48.094;11.478;2023-07-02T10:47:42;94951.38;;;20.76;100.00
19457;BME280;9867;48.094;11.478;2023-07-02T10:50:18;94961.06;;;20.30;100.00
19457;BME280;9867;48.094;11.478;2023-07-02T10:52:47;94961.81;;;20.15;100.00
19457;BME280;9867;48.094;11.478;2023-07-02T10:55:17;94943.31;;;20.67;100.00
19457;BME280;9867;48.094;11.478;2023-07-02T10:57:47;94949.19;;;21.08;100.00
19457;BME280;9867;48.094;11.478;2023-07-02T11:00:18;94948.50;;;20.77;100.00
19457;BME280;9867;48.094;11.478;2023-07-02T11:02:46;94950.09;;;20.13;100.00
19457;BME280;9867;48.094;11.478;2023-07-02T11:05:14;94935.72;;;19.54;100.00
19457;BME280;9867;48.094;11.478;2023-07-02T11:07:44;94940.94;;;19.74;100.00
19457;BME280;9867;48.094;11.478;2023-07-02T11:10:18;94945.91;;;20.12;100.00
19457;BME280;9867;48.094;11.478;2023-07-02T11:12:46;94944.34;;;20.71;100.00
19457;BME280;9867;48.094;11.478;2023-07-02T11:15:15;94947.16;;;20.85;100.00
19457;BME280;9867;48.094;11.478;2023-07-02T11:17:44;94942.00;;;20.60;100.00
19457;BME280;9867;48.094;11.478;2023-07-02T11:20:13;94934.22;;;20.50;100.00
19457;BME280;9867;48.094;11.478;2023-07-02T11:22:41;94933.06;;;20.86;100.00
19457;BME280;9867;48.094;11.478;2023-07-02T11:25:11;94927.97;;;21.30;100.00
19457;BME280;9867;48.094;11.478;2023-07-02T11:27:39;94942.59;;;21.31;100.00
19457;BME280;9867;48.094;11.478;2023-07-02T11:30:08;94928.69;;;21.46;100.00
19457;BME280;9867;48.094;11.478;2023-07-02T11:32:47;94937.34;;;21.36;100.00
19457;BME280;9867;48.094;11.478;2023-07-02T11:35:16;94938.50;;;21.64;100.00
19457;BME280;9867;48.094;11.478;2023-07-02T11:37:44;94929.69;;;21.55;100.00
19457;BME280;9867;48.094;11.478;2023-07-02T11:40:23;94920.78;;;21.61;100.00
19457;BME280;9867;48.094;11.478;2023-07-02T11:42:51;94924.78;;;21.88;100.00
19457;BME280;9867;48.094;11.478;2023-07-02T11:45:19;94926.75;;;22.06;100.00
19457;BME280;9867;48.094;11.478;2023-07-02T11:47:47;94922.81;;;22.08;100.00
19457;BME280;9867;48.094;11.478;2023-07-02T11:50:15;94922.84;;;22.37;100.00
19457;BME280;9867;48.094;11.478;2023-07-02T11:52:53;94921.44;;;22.45;100.00
19457;BME280;9867;48.094;11.478;2023-07-02T11:55:22;94901.50;;;22.25;100.00
19457;BME280;9867;48.094;11.478;2023-07-02T11:57:50;94914.66;;;22.97;100.00
19457;BME280;9867;48.094;11.478;2023-07-02T12:00:19;94912.75;;;23.26;100.00
19457;BME280;9867;48.094;11.478;2023-07-02T12:02:47;94909.78;;;23.14;100.00
19457;BME280;9867;48.094;11.478;2023-07-02T12:05:16;94902.47;;;22.34;100.00
19457;BME280;9867;48.094;11.478;2023-07-02T12:07:44;94902.78;;;22.28;100.00
19457;BME280;9867;48.094;11.478;2023-07-02T12:10:12;94898.00;;;22.40;100.00
19457;BME280;9867;48.094;11.478;2023-07-02T12:12:41;94904.94;;;22.21;100.00
19457;BME280;9867;48.094;11.478;2023-07-02T12:15:12;94901.06;;;22.18;100.00
19457;BME280;9867;48.094;11.478;2023-07-02T12:17:40;94900.38;;;21.68;100.00
19457;BME280;9867;48.094;11.478;2023-07-02T12:20:09;94895.28;;;21.87;100.00
19457;BME280;9867;48.094;11.478;2023-07-02T12:22:37;94899.28;;;22.14;100.00
19457;BME280;9867;48.094;11.478;2023-07-02T12:25:05;94888.88;;;22.37;100.00
19457;BME280;9867;48.094;11.478;2023-07-02T12:27:33;94884.38;;;22.67;100.00
19457;BME280;9867;48.094;11.478;2023-07-02T12:30:04;94889.03;;;22.46;100.00
19457;BME280;9867;48.094;11.478;2023-07-02T12:32:32;94890.94;;;22.40;100.00
19457;BME280;9867;48.094;11.478;2023-07-02T12:35:01;94885.34;;;21.89;100.00
19457;BME280;9867;48.094;11.478;2023-07-02T12:37:29;94892.44;;;22.18;100.00
19457;BME280;9867;48.094;11.478;2023-07-02T12:39:56;94891.16;;;22.68;100.00
19457;BME280;9867;48.094;11.478;2023-07-02T12:42:24;94879.56;;;22.50;100.00
19457;BME280;9867;48.094;11.478;2023-07-02T12:44:53;94889.16;;;21.97;100.00
19457;BME280;9867;48.094;11.478;2023-07-02T12:47:22;94895.44;;;21.62;100.00
19457;BME280;9867;48.094;11.478;2023-07-02T12:49:50;94887.31;;;21.68;100.00
19457;BME280;9867;48.094;11.478;2023-07-02T12:52:18;94891.63;;;21.83;100.00
19457;BME280;9867;48.094;11.478;2023-07-02T12:54:48;94894.59;;;22.10;100.00
19457;BME280;9867;48.094;11.478;2023-07-02T12:57:19;94886.91;;;21.85;100.00
19457;BME280;9867;48.094;11.478;2023-07-02T12:59:47;94886.97;;;21.75;100.00
19457;BME280;9867;48.094;11.478;2023-07-02T13:02:15;94878.97;;;21.66;100.00